Time;durP1;ratioP1;P1;durP2;ratioP2;P2;SDS_P1;SDS_P2;PMS_P1;PMS_P2;Temp;Humidity;BMP_temperature;BMP_pressure;BME280_temperature;BME280_humidity;BME280_pressure;Samples;Min_cycle;Max_cycle;Signal;HPM_P1;HPM_P2
2022/07/18 00:01:58;;;;;;;4.10;2.55;;;14.70;99.90;;;;;;5081914;28;20412;-44
2022/07/18 00:04:25;;;;;;;6.20;3.53;;;16.10;99.90;;;;;;5081296;28;20091;-45
2022/07/18 00:06:51;;;;;;;6.72;3.80;;;15.10;99.90;;;;;;5082367;28;20040;-45
2022/07/18 00:09:19;;;;;;;7.28;4.07;;;14.00;99.90;;;;;;5081259;28;20039;-45
2022/07/18 00:11:47;;;;;;;6.30;3.08;;;15.00;99.90;;;;;;5081574;28;20040;-46
2022/07/18 00:14:12;;;;;;;6.65;3.35;;;13.80;99.90;;;;;;5081668;28;20047;-47
2022/07/18 00:16:38;;;;;;;7.55;3.90;;;14.00;99.90;;;;;;5081930;28;20543;-47
2022/07/18 00:19:06;;;;;;;6.50;3.42;;;14.10;99.90;;;;;;5081666;28;20051;-45
2022/07/18 00:21:33;;;;;;;7.13;3.50;;;13.80;99.90;;;;;;5082289;28;20044;-44
2022/07/18 00:23:59;;;;;;;6.60;4.30;;;14.70;99.90;;;;;;5081098;28;20174;-49
2022/07/18 00:26:27;;;;;;;5.82;3.92;;;14.80;99.90;;;;;;5081479;28;20127;-46
2022/07/18 00:28:53;;;;;;;5.95;3.63;;;14.90;99.90;;;;;;5081216;28;20097;-45
2022/07/18 00:31:18;;;;;;;5.80;3.22;;;14.20;99.90;;;;;;5080867;28;20134;-45
2022/07/18 00:33:44;;;;;;;6.93;4.28;;;13.80;99.90;;;;;;5082194;28;20196;-47
2022/07/18 00:36:10;;;;;;;7.32;4.90;;;13.90;99.90;;;;;;5080584;28;20042;-47
2022/07/18 00:38:36;;;;;;;6.80;4.18;;;13.60;99.90;;;;;;5080962;28;20051;-44
2022/07/18 00:41:02;;;;;;;6.20;4.47;;;13.70;99.90;;;;;;5080794;28;20061;-46
2022/07/18 00:43:30;;;;;;;10.18;5.43;;;13.70;99.90;;;;;;5081739;28;20063;-45
2022/07/18 00:45:55;;;;;;;6.43;4.53;;;14.80;99.90;;;;;;5081081;28;20048;-49
2022/07/18 00:48:21;;;;;;;6.15;3.92;;;13.60;99.90;;;;;;5080834;28;20048;-44
2022/07/18 00:50:47;;;;;;;5.95;3.45;;;15.10;99.90;;;;;;5081344;28;20526;-49
2022/07/18 00:53:13;;;;;;;7.78;4.20;;;13.60;99.90;;;;;;5080460;28;20042;-50
2022/07/18 00:55:40;;;;;;;8.15;3.70;;;15.00;99.90;;;;;;5081528;28;20044;-47
2022/07/18 00:58:09;;;;;;;6.72;3.92;;;13.50;99.90;;;;;;5062768;28;20079;-46
2022/07/18 01:03:21;;;;;;;8.18;4.20;;;13.50;99.90;;;;;;5080496;28;20105;-48
2022/07/18 01:05:46;;;;;;;5.90;3.65;;;14.90;99.90;;;;;;5080809;28;20082;-47
2022/07/18 01:08:12;;;;;;;5.70;3.88;;;14.70;99.90;;;;;;5080629;28;20119;-49
2022/07/18 01:10:38;;;;;;;7.25;3.85;;;13.40;99.90;;;;;;5080517;28;20445;-45
2022/07/18 01:13:04;;;;;;;5.97;3.45;;;14.20;99.90;;;;;;5080855;28;20050;-44
2022/07/18 01:15:29;;;;;;;8.00;3.72;;;14.20;99.90;;;;;;5080156;28;20119;-48
2022/07/18 01:17:55;;;;;;;5.45;3.72;;;14.50;99.90;;;;;;5080584;28;21005;-46
2022/07/18 01:20:21;;;;;;;5.22;3.55;;;13.40;99.90;;;;;;5080705;28;20116;-46
2022/07/18 01:22:46;;;;;;;5.35;3.45;;;13.30;99.90;;;;;;5080013;28;20068;-45
2022/07/18 01:25:16;;;;;;;8.50;3.65;;;13.30;99.90;;;;;;5080085;28;20036;-49
2022/07/18 01:27:42;;;;;;;6.05;4.00;;;14.20;99.90;;;;;;5079898;28;20048;-47
2022/07/18 01:30:09;;;;;;;5.88;3.85;;;13.30;99.90;;;;;;5080157;28;20528;-46
2022/07/18 01:32:36;;;;;;;6.38;3.50;;;13.20;99.90;;;;;;5079495;28;20047;-47
2022/07/18 01:35:03;;;;;;;4.40;3.08;;;13.20;99.90;;;;;;5080409;28;20036;-48
2022/07/18 01:37:28;;;;;;;6.00;4.28;;;13.00;99.90;;;;;;5079951;28;20533;-47
2022/07/18 01:39:54;;;;;;;6.65;3.70;;;13.10;99.90;;;;;;5080513;28;20086;-47
2022/07/18 01:42:20;;;;;;;7.68;3.72;;;13.10;99.90;;;;;;5080528;28;20056;-46
2022/07/18 01:44:46;;;;;;;5.40;3.72;;;12.90;99.90;;;;;;5080168;28;20051;-45
2022/07/18 01:47:14;;;;;;;8.73;5.03;;;13.10;99.90;;;;;;5085528;28;20048;-45
2022/07/18 01:49:40;;;;;;;9.13;4.63;;;13.00;99.90;;;;;;5087889;28;20040;-48
2022/07/18 01:52:06;;;;;;;7.32;4.50;;;13.00;99.90;;;;;;5086770;28;20500;-49
2022/07/18 01:54:33;;;;;;;5.68;3.80;;;13.00;99.90;;;;;;5087335;28;20062;-50
2022/07/18 01:57:01;;;;;;;5.28;3.53;;;13.00;99.90;;;;;;5087679;28;20071;-49
2022/07/18 01:59:27;;;;;;;10.95;4.80;;;14.50;99.90;;;;;;5086910;28;20602;-50
2022/07/18 02:01:55;;;;;;;9.30;4.72;;;13.10;99.90;;;;;;5087327;28;20485;-48
2022/07/18 02:04:59;;;;;;;9.13;4.43;;;13.00;99.90;;;;;;5087805;28;20504;-49
2022/07/18 02:07:07;;;;;;;6.10;4.40;;;12.90;99.90;;;;;;5086740;28;20044;-49
2022/07/18 02:09:33;;;;;;;6.95;4.05;;;13.80;99.90;;;;;;5087515;28;20043;-50
2022/07/18 02:11:58;;;;;;;8.38;3.97;;;12.90;99.90;;;;;;5086594;28;20036;-48
2022/07/18 02:14:26;;;;;;;7.45;3.80;;;13.60;99.90;;;;;;5086806;28;20082;-48
2022/07/18 02:16:51;;;;;;;7.38;4.25;;;12.70;99.90;;;;;;5086532;28;20040;-48
2022/07/18 02:19:17;;;;;;;7.20;4.22;;;12.60;99.90;;;;;;5086190;28;20051;-48
2022/07/18 02:21:43;;;;;;;7.18;3.80;;;13.50;99.90;;;;;;5086569;28;20067;-51
2022/07/18 02:24:08;;;;;;;7.43;3.60;;;15.00;99.90;;;;;;5086131;28;20075;-48
2022/07/18 02:26:34;;;;;;;6.82;3.58;;;12.80;99.90;;;;;;5086806;28;20032;-48
2022/07/18 02:29:00;;;;;;;7.60;3.90;;;12.70;99.90;;;;;;5086058;28;20043;-50
2022/07/18 02:31:26;;;;;;;6.57;3.50;;;12.70;99.90;;;;;;5087282;28;20466;-47
2022/07/18 02:33:52;;;;;;;7.32;4.32;;;13.40;99.90;;;;;;5086315;28;20135;-48
2022/07/18 02:36:18;;;;;;;8.80;5.30;;;12.80;99.90;;;;;;5086467;28;20046;-50
2022/07/18 02:38:44;;;;;;;8.50;4.45;;;12.70;99.90;;;;;;5086028;28;20048;-49
2022/07/18 02:41:09;;;;;;;7.53;4.90;;;13.30;99.90;;;;;;5085986;28;20123;-49
2022/07/18 02:43:35;;;;;;;7.30;4.45;;;12.90;99.90;;;;;;5085239;28;20150;-51
2022/07/18 02:46:02;;;;;;;7.70;5.18;;;13.60;99.90;;;;;;5085938;28;20070;-50
2022/07/18 02:48:28;;;;;;;10.05;6.32;;;13.70;99.90;;;;;;5086041;28;20039;-48
2022/07/18 02:50:54;;;;;;;8.38;6.32;;;12.80;99.90;;;;;;5086251;28;20454;-49
2022/07/18 02:53:23;;;;;;;10.20;6.07;;;12.70;99.90;;;;;;5067954;28;20134;-49
2022/07/18 02:55:52;;;;;;;9.48;5.93;;;12.90;99.90;;;;;;5086004;28;20044;-48
2022/07/18 02:58:17;;;;;;;9.45;6.82;;;12.90;99.90;;;;;;5083938;28;20045;-50
2022/07/18 03:00:43;;;;;;;10.48;6.18;;;12.90;99.90;;;;;;5082466;28;20704;-49
2022/07/18 03:03:09;;;;;;;9.15;6.72;;;12.70;99.90;;;;;;5082781;28;20097;-50
2022/07/18 03:05:35;;;;;;;9.52;6.47;;;12.80;99.90;;;;;;5082792;28;20036;-49
2022/07/18 03:08:00;;;;;;;12.73;6.63;;;12.70;99.90;;;;;;5082746;28;20073;-49
2022/07/18 03:10:26;;;;;;;11.35;7.18;;;12.80;99.90;;;;;;5082674;28;20040;-50
2022/07/18 03:12:52;;;;;;;10.35;7.03;;;12.70;99.90;;;;;;5083008;28;20044;-48
2022/07/18 03:15:17;;;;;;;8.40;6.38;;;12.80;99.90;;;;;;5082714;28;20739;-48
2022/07/18 03:17:45;;;;;;;10.38;8.18;;;13.10;99.90;;;;;;5064243;28;20048;-49
2022/07/18 03:20:11;;;;;;;11.35;7.25;;;12.90;99.90;;;;;;5082284;28;20043;-46
2022/07/18 03:22:36;;;;;;;13.52;7.00;;;12.80;99.90;;;;;;5082478;28;20040;-46
2022/07/18 03:25:03;;;;;;;13.15;7.88;;;14.10;99.90;;;;;;5082366;28;20048;-47
2022/07/18 03:27:32;;;;;;;14.23;7.22;;;12.60;99.90;;;;;;5064172;28;20036;-49
2022/07/18 03:29:58;;;;;;;13.70;7.65;;;13.00;99.90;;;;;;5081165;28;20539;-47
2022/07/18 03:32:24;;;;;;;12.93;7.95;;;12.90;99.90;;;;;;5081490;28;20040;-47
2022/07/18 03:34:51;;;;;;;11.23;7.53;;;13.00;99.90;;;;;;5081689;28;20284;-47
2022/07/18 03:37:17;;;;;;;12.95;7.05;;;14.00;99.90;;;;;;5081868;28;20389;-47
2022/07/18 03:39:42;;;;;;;10.40;6.85;;;13.30;99.90;;;;;;5081962;28;20043;-46
2022/07/18 03:42:08;;;;;;;11.48;7.93;;;13.30;99.90;;;;;;5081434;28;20188;-48
2022/07/18 03:44:34;;;;;;;11.60;7.28;;;14.00;99.90;;;;;;5063605;28;20543;-46
2022/07/18 03:46:59;;;;;;;12.13;7.40;;;13.10;99.90;;;;;;5080724;28;20075;-45
2022/07/18 03:49:27;;;;;;;15.43;7.55;;;14.00;99.90;;;;;;5081979;28;20062;-45
2022/07/18 03:51:55;;;;;;;11.30;7.63;;;12.80;99.90;;;;;;5081301;28;20042;-46
2022/07/18 03:54:22;;;;;;;9.60;6.97;;;12.80;99.90;;;;;;5081055;28;20512;-47
2022/07/18 03:56:47;;;;;;;13.75;6.97;;;12.90;99.90;;;;;;5062913;28;20075;-47
2022/07/18 03:59:13;;;;;;;11.98;7.55;;;12.90;99.90;;;;;;5081291;28;20047;-46
2022/07/18 04:01:39;;;;;;;12.50;7.25;;;13.00;99.90;;;;;;5080929;28;20566;-47
2022/07/18 04:04:06;;;;;;;11.23;7.47;;;12.80;99.90;;;;;;5081469;28;20082;-46
2022/07/18 04:06:34;;;;;;;10.65;7.25;;;13.20;99.90;;;;;;5081469;28;20810;-47
2022/07/18 04:09:00;;;;;;;10.10;7.22;;;12.90;99.90;;;;;;5080671;28;20097;-44
2022/07/18 04:11:26;;;;;;;11.30;7.10;;;14.20;99.90;;;;;;5081195;28;20044;-47
2022/07/18 04:13:54;;;;;;;10.90;7.45;;;14.50;99.90;;;;;;5081367;28;20803;-47
2022/07/18 04:16:20;;;;;;;13.85;7.13;;;12.90;99.90;;;;;;5081375;28;20048;-47
2022/07/18 04:18:46;;;;;;;10.73;6.80;;;13.20;99.90;;;;;;5063061;28;20384;-46
2022/07/18 04:21:12;;;;;;;12.95;7.60;;;14.30;99.90;;;;;;5080564;28;20046;-47
2022/07/18 04:23:38;;;;;;;11.07;7.18;;;13.30;99.90;;;;;;5081179;28;20048;-47
2022/07/18 04:26:04;;;;;;;12.63;6.90;;;13.50;99.90;;;;;;5081394;28;20058;-46
2022/07/18 04:28:32;;;;;;;11.75;7.03;;;13.60;99.90;;;;;;5080988;28;20044;-46
2022/07/18 04:30:58;;;;;;;10.70;6.45;;;13.70;99.90;;;;;;5080828;28;20040;-46
2022/07/18 04:33:23;;;;;;;11.50;6.32;;;13.90;99.90;;;;;;5062927;28;20456;-47
2022/07/18 04:35:51;;;;;;;9.05;6.05;;;15.40;99.90;;;;;;5080537;28;20163;-49
2022/07/18 04:38:17;;;;;;;11.45;6.93;;;14.00;99.90;;;;;;5080127;28;20089;-47
2022/07/18 04:40:42;;;;;;;10.98;6.90;;;16.00;99.90;;;;;;5081424;28;20447;-46
2022/07/18 04:43:08;;;;;;;13.65;6.85;;;14.70;99.90;;;;;;5080639;28;20070;-44
2022/07/18 04:45:35;;;;;;;11.25;7.22;;;14.10;99.90;;;;;;5080626;28;20084;-45
2022/07/18 04:48:02;;;;;;;13.43;7.10;;;14.10;99.90;;;;;;5080287;28;20044;-44
2022/07/18 04:50:29;;;;;;;11.07;7.70;;;14.30;99.90;;;;;;5080237;28;20053;-45
2022/07/18 04:52:56;;;;;;;10.23;6.85;;;16.20;99.90;;;;;;5080591;28;20055;-45
2022/07/18 04:55:23;;;;;;;9.73;6.65;;;15.10;99.90;;;;;;5080180;28;20678;-47
2022/07/18 04:57:50;;;;;;;13.43;7.00;;;14.50;99.90;;;;;;5080218;28;20040;-47
2022/07/18 05:00:23;;;;;;;10.95;7.03;;;15.50;99.90;;;;;;5079981;28;20073;-44
2022/07/18 05:02:50;;;;;;;9.98;6.63;;;14.50;99.90;;;;;;5079792;28;20126;-47
2022/07/18 05:05:17;;;;;;;13.80;6.65;;;14.50;99.90;;;;;;5079809;28;20045;-45
2022/07/18 05:07:46;;;;;;;12.75;6.70;;;14.50;99.90;;;;;;5080800;28;20036;-46
2022/07/18 05:10:13;;;;;;;9.93;6.50;;;14.90;99.90;;;;;;5080149;28;20451;-44
2022/07/18 05:12:41;;;;;;;12.20;6.68;;;14.70;99.90;;;;;;5045086;28;20112;-45
2022/07/18 05:15:10;;;;;;;13.50;6.65;;;16.10;99.90;;;;;;5079685;28;20337;-49
2022/07/18 05:17:37;;;;;;;13.52;7.32;;;14.60;99.90;;;;;;5079741;28;20085;-50
2022/07/18 05:20:08;;;;;;;11.73;6.55;;;16.00;99.90;;;;;;5079535;28;20048;-47
2022/07/18 05:22:35;;;;;;;10.95;6.97;;;14.80;99.90;;;;;;5079725;28;20039;-43
2022/07/18 05:25:03;;;;;;;8.68;6.25;;;17.40;99.90;;;;;;5079885;28;20052;-48
2022/07/18 05:27:29;;;;;;;11.82;5.85;;;15.00;99.90;;;;;;5079398;28;20040;-48
2022/07/18 05:29:55;;;;;;;9.50;5.75;;;15.20;99.90;;;;;;5080539;28;20398;-44
2022/07/18 05:32:20;;;;;;;13.13;5.43;;;15.20;99.90;;;;;;5079930;28;20106;-48
2022/07/18 05:34:46;;;;;;;10.77;5.80;;;15.80;99.90;;;;;;5079937;28;20040;-45
2022/07/18 05:37:12;;;;;;;9.73;4.82;;;15.30;99.90;;;;;;5080573;28;20047;-46
2022/07/18 05:39:40;;;;;;;7.85;5.10;;;15.60;99.90;;;;;;5080074;28;20044;-43
2022/07/18 05:42:06;;;;;;;10.68;5.65;;;15.70;99.90;;;;;;5079938;28;20064;-46
2022/07/18 05:44:32;;;;;;;9.57;5.28;;;15.50;99.90;;;;;;5079861;28;20155;-45
2022/07/18 05:47:01;;;;;;;8.48;5.30;;;15.50;99.90;;;;;;5080265;28;20534;-48
2022/07/18 05:49:26;;;;;;;11.38;5.30;;;15.50;99.90;;;;;;5080417;28;20044;-46
2022/07/18 05:51:52;;;;;;;10.50;5.43;;;15.60;99.90;;;;;;5080472;28;20028;-45
2022/07/18 05:54:19;;;;;;;9.57;4.70;;;16.00;99.90;;;;;;5080452;28;20118;-46
2022/07/18 05:56:51;;;;;;;10.88;4.95;;;15.80;99.90;;;;;;5079702;28;20040;-45
2022/07/18 05:59:20;;;;;;;13.68;5.28;;;15.90;99.90;;;;;;5080088;28;20049;-47
2022/07/18 06:01:46;;;;;;;9.18;4.88;;;16.20;99.90;;;;;;5079813;28;20091;-44
2022/07/18 06:04:12;;;;;;;11.57;4.85;;;16.30;99.90;;;;;;5079989;28;20044;-46
2022/07/18 06:06:38;;;;;;;8.43;4.80;;;17.70;99.90;;;;;;5079794;28;20063;-46
2022/07/18 06:09:04;;;;;;;10.07;5.03;;;16.40;99.90;;;;;;5079840;28;20377;-45
2022/07/18 06:11:30;;;;;;;11.10;4.72;;;17.90;99.90;;;;;;5079195;28;20127;-47
2022/07/18 06:13:56;;;;;;;9.23;4.65;;;16.50;99.00;;;;;;5058656;28;20096;-46
2022/07/18 06:16:22;;;;;;;9.48;4.70;;;16.70;97.30;;;;;;5079543;28;20456;-43
2022/07/18 06:18:48;;;;;;;10.75;4.88;;;16.80;96.70;;;;;;5079352;28;20119;-45
2022/07/18 06:21:17;;;;;;;8.55;5.10;;;18.40;96.50;;;;;;5078919;28;20048;-45
2022/07/18 06:23:43;;;;;;;11.73;5.38;;;17.00;94.30;;;;;;5079086;28;20504;-45
2022/07/18 06:26:08;;;;;;;9.55;4.85;;;17.30;92.60;;;;;;5078792;28;20127;-48
2022/07/18 06:28:34;;;;;;;9.38;4.35;;;17.60;91.00;;;;;;5078746;28;20048;-47
2022/07/18 06:31:01;;;;;;;9.45;4.20;;;17.70;90.90;;;;;;5078557;28;20052;-46
2022/07/18 06:33:27;;;;;;;7.68;4.55;;;17.80;89.60;;;;;;5079620;28;20044;-49
2022/07/18 06:35:54;;;;;;;10.60;4.40;;;17.80;78.20;;;;;;5083351;28;20055;-47
2022/07/18 06:38:20;;;;;;;8.75;4.40;;;18.10;66.50;;;;;;5082764;28;20076;-45
2022/07/18 06:40:46;;;;;;;8.82;4.40;;;18.10;58.60;;;;;;5082321;28;20471;-44
2022/07/18 06:43:13;;;;;;;9.70;4.63;;;18.20;57.40;;;;;;5079674;28;20131;-48
2022/07/18 06:45:39;;;;;;;8.93;4.55;;;18.60;53.40;;;;;;5083217;28;20105;-50
2022/07/18 06:48:05;;;;;;;10.05;4.60;;;18.60;53.30;;;;;;5064085;28;20044;-48
2022/07/18 06:50:33;;;;;;;11.70;5.22;;;18.50;47.00;;;;;;5082872;28;20048;-49
2022/07/18 06:52:58;;;;;;;10.50;4.25;;;19.50;33.20;;;;;;5082681;28;20093;-46
2022/07/18 06:55:24;;;;;;;7.57;3.85;;;19.20;34.80;;;;;;5083029;28;20047;-47
2022/07/18 06:57:53;;;;;;;8.82;4.22;;;19.20;19.70;;;;;;5082708;28;20465;-49
2022/07/18 07:00:18;;;;;;;9.60;4.40;;;19.40;11.00;;;;;;5082155;28;20047;-49
2022/07/18 07:02:46;;;;;;;10.00;3.90;;;20.10;1.00;;;;;;5083673;28;20040;-49
2022/07/18 07:05:15;;;;;;;8.10;4.10;;;21.20;1.00;;;;;;5082352;28;20969;-48
2022/07/18 07:07:41;;;;;;;7.60;3.60;;;22.20;1.00;;;;;;5082568;28;20044;-47
2022/07/18 07:10:07;;;;;;;6.90;3.42;;;23.20;99.90;;;;;;5082024;28;20072;-45
2022/07/18 07:12:42;;;;;;;7.32;3.17;;;24.40;1.00;;;;;;5082747;28;20134;-50
2022/07/18 07:15:09;;;;;;;7.85;3.15;;;25.30;99.90;;;;;;5082293;28;20044;-46
2022/07/18 07:17:36;;;;;;;6.05;2.80;;;25.60;1.00;;;;;;5082661;28;20048;-49
2022/07/18 07:20:03;;;;;;;6.13;2.88;;;22.80;99.90;;;;;;5081294;28;20125;-48
2022/07/18 07:22:29;;;;;;;11.85;3.25;;;24.70;99.90;;;;;;5082068;28;20105;-46
2022/07/18 07:24:55;;;;;;;10.32;2.80;;;24.90;99.90;;;;;;5081453;28;20047;-48
2022/07/18 07:27:20;;;;;;;6.30;2.83;;;24.10;99.90;;;;;;5080547;28;20501;-47
2022/07/18 07:29:46;;;;;;;5.78;2.97;;;25.10;99.90;;;;;;5082316;28;20043;-48
2022/07/18 07:32:12;;;;;;;11.27;2.80;;;25.60;99.90;;;;;;5081159;28;20066;-48
2022/07/18 07:34:37;;;;;;;7.22;2.70;;;26.20;1.00;;;;;;5081080;28;20547;-51
2022/07/18 07:37:03;;;;;;;8.00;2.90;;;26.40;99.90;;;;;;5081600;28;20120;-48
2022/07/18 07:39:28;;;;;;;8.85;2.72;;;27.30;99.90;;;;;;5081936;28;20102;-48
2022/07/18 07:41:54;;;;;;;9.10;2.60;;;27.70;99.90;;;;;;5081104;28;20052;-49
2022/07/18 07:44:20;;;;;;;9.70;2.50;;;27.60;99.90;;;;;;5079416;28;20044;-49
2022/07/18 07:46:46;;;;;;;5.20;2.35;;;27.90;99.90;;;;;;5081720;28;20884;-46
2022/07/18 07:49:15;;;;;;;6.55;2.20;;;28.10;99.90;;;;;;5081059;28;20052;-47
2022/07/18 07:51:40;;;;;;;23.55;2.90;;;27.90;91.20;;;;;;5080889;28;20074;-46
2022/07/18 07:54:06;;;;;;;7.20;2.00;;;28.10;9.30;;;;;;5081532;28;20412;-49
2022/07/18 07:56:34;;;;;;;7.72;2.17;;;28.60;13.60;;;;;;5081095;28;20051;-48
2022/07/18 07:59:01;;;;;;;5.93;2.03;;;28.70;1.00;;;;;;5079894;28;20542;-46
2022/07/18 08:01:27;;;;;;;3.95;1.98;;;28.80;1.00;;;;;;5080338;28;20208;-52
2022/07/18 08:03:52;;;;;;;4.68;1.83;;;28.60;1.00;;;;;;5078710;28;20172;-49
2022/07/18 08:06:18;;;;;;;4.85;1.90;;;28.00;1.00;;;;;;5079511;28;20126;-49
2022/07/18 08:08:44;;;;;;;8.32;2.10;;;27.90;90.80;;;;;;5080053;28;20044;-47
2022/07/18 08:11:14;;;;;;;4.75;1.80;;;27.80;99.90;;;;;;5097222;27;20491;-47
2022/07/18 08:13:40;;;;;;;6.03;2.03;;;27.80;21.20;;;;;;5081975;28;20071;-50
2022/07/18 08:16:06;;;;;;;5.65;1.60;;;27.50;1.00;;;;;;5081082;28;20086;-46
2022/07/18 08:18:33;;;;;;;5.28;2.17;;;27.10;99.90;;;;;;5081660;28;20550;-46
2022/07/18 08:20:59;;;;;;;6.28;1.70;;;27.50;99.90;;;;;;5062770;28;20131;-47
2022/07/18 08:23:24;;;;;;;7.45;1.65;;;28.20;99.90;;;;;;5080959;28;20482;-47
2022/07/18 08:25:53;;;;;;;4.85;1.85;;;28.40;1.00;;;;;;5081054;28;20048;-49
2022/07/18 08:28:19;;;;;;;7.03;1.60;;;28.50;1.00;;;;;;5080296;28;20113;-49
2022/07/18 08:30:46;;;;;;;3.95;1.48;;;28.40;1.00;;;;;;5081045;28;20043;-50
2022/07/18 08:33:12;;;;;;;7.53;1.50;;;28.30;1.00;;;;;;5080999;28;20040;-47
2022/07/18 08:35:38;;;;;;;5.40;1.55;;;27.80;99.90;;;;;;5081473;28;20129;-47
2022/07/18 08:38:04;;;;;;;6.68;1.67;;;27.50;99.90;;;;;;5081095;28;20044;-50
2022/07/18 08:40:30;;;;;;;5.10;1.70;;;27.20;99.90;;;;;;5081140;28;20043;-47
2022/07/18 08:42:57;;;;;;;5.13;1.52;;;27.30;99.90;;;;;;5079797;28;20109;-49
2022/07/18 08:45:25;;;;;;;9.60;2.00;;;27.00;99.90;;;;;;5080177;28;20126;-49
2022/07/18 08:47:51;;;;;;;7.13;1.70;;;26.70;99.90;;;;;;5080256;28;20047;-49
2022/07/18 08:50:18;;;;;;;7.82;1.70;;;26.70;99.90;;;;;;5079903;28;20071;-47
2022/07/18 08:52:45;;;;;;;15.88;3.15;;;26.70;4.90;;;;;;5062732;28;20130;-49
2022/07/18 08:55:11;;;;;;;6.32;1.67;;;26.50;47.60;;;;;;5080203;28;20055;-48
2022/07/18 08:57:37;;;;;;;7.85;2.05;;;26.20;99.90;;;;;;5079423;28;20044;-46
2022/07/18 09:00:09;;;;;;;5.50;1.77;;;27.00;1.00;;;;;;5079576;28;20051;-47
2022/07/18 09:02:35;;;;;;;9.75;1.90;;;25.70;99.90;;;;;;5079903;28;20052;-47
2022/07/18 09:05:02;;;;;;;5.30;1.60;;;25.60;99.90;;;;;;5079103;28;20223;-47
2022/07/18 09:07:32;;;;;;;6.35;2.22;;;25.70;99.90;;;;;;5080167;28;20051;-52
2022/07/18 09:10:02;;;;;;;7.70;1.48;;;25.70;99.90;;;;;;5079341;28;20052;-46
2022/07/18 09:12:32;;;;;;;9.45;1.63;;;26.20;99.90;;;;;;5079982;28;20048;-48
2022/07/18 09:15:10;;;;;;;6.70;1.58;;;26.70;99.90;;;;;;5079964;28;20056;-48
2022/07/18 09:17:37;;;;;;;10.80;2.53;;;27.10;99.90;;;;;;5079311;28;20100;-48
2022/07/18 09:20:14;;;;;;;10.60;2.17;;;27.40;93.40;;;;;;5079586;28;20044;-50
2022/07/18 09:22:42;;;;;;;7.53;1.50;;;27.80;1.00;;;;;;5079602;28;20036;-49
2022/07/18 09:25:12;;;;;;;6.70;1.58;;;27.70;1.00;;;;;;5079878;28;20047;-49
2022/07/18 09:27:44;;;;;;;5.28;1.33;;;28.10;1.00;;;;;;5079515;28;20528;-50
2022/07/18 09:30:15;;;;;;;7.07;1.80;;;28.00;99.90;;;;;;5080366;28;20125;-47
2022/07/18 09:33:11;;;;;;;6.50;1.55;;;27.80;99.90;;;;;;5080194;28;20043;-48
2022/07/18 09:35:44;;;;;;;6.40;1.83;;;27.60;99.90;;;;;;4997361;28;20245;-48
2022/07/18 09:38:13;;;;;;;6.15;1.70;;;27.40;99.90;;;;;;4981270;28;20116;-50
2022/07/18 09:40:42;;;;;;;4.50;1.40;;;27.30;99.90;;;;;;4997944;28;20072;-47
2022/07/18 09:43:10;;;;;;;5.85;1.77;;;27.30;99.90;;;;;;4996911;28;20125;-48
2022/07/18 09:45:42;;;;;;;6.68;1.60;;;27.40;99.90;;;;;;4997112;28;20651;-48
2022/07/18 09:48:08;;;;;;;;;;;27.50;99.90;;;;;;4998100;28;20046;-50
2022/07/18 09:50:43;;;;;;;8.38;1.70;;;27.80;99.90;;;;;;4997885;28;19964;-49
2022/07/18 09:53:19;;;;;;;8.20;2.33;;;27.90;99.90;;;;;;4997585;28;20053;-47
2022/07/18 09:55:58;;;;;;;5.43;1.70;;;28.00;99.90;;;;;;4997836;28;20050;-50
2022/07/18 09:58:26;;;;;;;6.85;2.10;;;28.50;99.90;;;;;;4997626;28;20073;-49
2022/07/18 10:00:54;;;;;;;4.97;1.60;;;28.40;99.90;;;;;;4997917;28;20053;-50
2022/07/18 10:03:21;;;;;;;4.75;1.90;;;28.60;99.90;;;;;;4997373;28;20064;-49
2022/07/18 10:05:48;;;;;;;5.20;1.90;;;28.40;99.90;;;;;;4996592;28;20061;-48
2022/07/18 10:08:23;;;;;;;4.85;1.80;;;28.10;99.90;;;;;;4999643;28;20046;-49
2022/07/18 10:10:52;;;;;;;8.43;1.63;;;28.20;99.90;;;;;;5001031;28;20637;-49
2022/07/18 10:13:19;;;;;;;7.07;2.20;;;28.40;99.90;;;;;;5083019;28;20047;-51
2022/07/18 10:15:47;;;;;;;5.95;1.92;;;28.30;99.90;;;;;;5083436;28;20135;-49
2022/07/18 10:18:15;;;;;;;11.45;2.33;;;28.40;99.90;;;;;;5083461;28;20048;-50
2022/07/18 10:20:50;;;;;;;5.22;1.90;;;28.60;99.90;;;;;;5083610;28;20035;-51
2022/07/18 10:23:17;;;;;;;7.25;1.90;;;28.60;99.90;;;;;;5083249;28;20102;-50
2022/07/18 10:25:44;;;;;;;8.02;2.63;;;28.80;99.90;;;;;;5082993;28;20076;-47
2022/07/18 10:28:13;;;;;;;6.55;2.00;;;29.30;99.90;;;;;;5082979;28;20052;-45
2022/07/18 10:30:45;;;;;;;5.70;1.88;;;29.60;99.90;;;;;;5082766;28;20039;-48
2022/07/18 10:33:39;;;;;;;8.80;2.28;;;29.20;99.90;;;;;;5082218;28;20090;-46
2022/07/18 10:36:09;;;;;;;7.40;2.22;;;29.10;99.90;;;;;;5082836;28;20611;-50
2022/07/18 10:38:35;;;;;;;5.50;2.13;;;29.40;99.90;;;;;;5081797;28;20051;-48
2022/07/18 10:41:14;;;;;;;6.00;2.15;;;29.30;99.90;;;;;;5082315;28;20108;-50
2022/07/18 10:43:42;;;;;;;6.13;2.38;;;29.30;99.90;;;;;;5081898;28;20093;-48
2022/07/18 10:46:09;;;;;;;7.53;2.10;;;31.90;99.90;;;;;;5082224;28;20067;-47
2022/07/18 10:48:35;;;;;;;7.70;2.13;;;29.80;99.90;;;;;;5082523;28;20051;-50
2022/07/18 10:51:12;;;;;;;6.55;2.17;;;29.70;99.90;;;;;;5083029;28;20090;-48
2022/07/18 10:53:53;;;;;;;6.65;2.70;;;30.10;99.90;;;;;;5083671;28;20047;-49
2022/07/18 10:56:28;;;;;;;4.45;1.75;;;30.40;99.90;;;;;;5083241;28;20052;-47
2022/07/18 10:58:57;;;;;;;5.97;2.00;;;30.50;99.90;;;;;;5083963;28;20066;-49
2022/07/18 11:01:24;;;;;;;11.52;2.78;;;30.60;99.90;;;;;;5083152;28;20051;-49
2022/07/18 11:04:10;;;;;;;4.43;2.10;;;30.60;99.90;;;;;;5083240;28;20128;-49
2022/07/18 11:07:15;;;;;;;5.68;2.33;;;30.40;99.90;;;;;;5083398;28;20453;-49
2022/07/18 11:09:41;;;;;;;4.78;2.10;;;30.10;99.90;;;;;;4989799;28;20077;-47
2022/07/18 11:12:24;;;;;;;5.32;1.90;;;29.90;99.90;;;;;;4974473;28;20163;-51
2022/07/18 11:15:11;;;;;;;5.95;2.35;;;30.00;99.90;;;;;;4984641;28;21098;-50
2022/07/18 11:17:59;;;;;;;6.03;2.50;;;29.90;99.90;;;;;;4987471;28;20050;-50
2022/07/18 11:20:33;;;;;;;4.90;2.05;;;30.20;99.90;;;;;;4984719;28;20062;-51
2022/07/18 11:23:05;;;;;;;5.32;2.10;;;30.20;99.90;;;;;;4991647;28;20084;-50
2022/07/18 11:25:31;;;;;;;4.82;2.08;;;30.30;99.90;;;;;;4992141;28;20436;-49
2022/07/18 11:27:57;;;;;;;6.78;2.60;;;30.30;99.90;;;;;;4986345;28;20081;-51
2022/07/18 11:30:26;;;;;;;6.10;2.38;;;30.60;99.90;;;;;;4986892;28;20046;-47
2022/07/18 11:32:52;;;;;;;5.63;2.55;;;30.50;99.90;;;;;;4980637;28;20093;-48
2022/07/18 11:35:22;;;;;;;4.78;2.28;;;30.50;99.90;;;;;;4986360;28;20046;-48
2022/07/18 11:37:50;;;;;;;6.73;2.17;;;30.20;99.90;;;;;;4965581;28;20299;-51
2022/07/18 11:40:16;;;;;;;4.78;2.35;;;30.50;99.90;;;;;;5011361;28;20095;-51
2022/07/18 11:42:42;;;;;;;7.70;2.80;;;30.50;99.90;;;;;;5081828;28;20044;-48
2022/07/18 11:45:12;;;;;;;6.97;2.97;;;30.70;99.90;;;;;;5081955;28;20117;-50
2022/07/18 11:47:52;;;;;;;7.60;2.53;;;30.40;99.90;;;;;;5081771;28;20141;-50
2022/07/18 11:50:26;;;;;;;8.15;2.90;;;30.50;99.90;;;;;;5082509;28;20040;-50
2022/07/18 11:52:57;;;;;;;7.35;3.00;;;30.40;99.90;;;;;;5081702;28;20058;-50
2022/07/18 11:55:35;;;;;;;5.78;2.70;;;30.40;99.90;;;;;;5081821;28;20409;-50
2022/07/18 11:58:12;;;;;;;6.65;2.55;;;30.50;79.90;;;;;;5081589;28;20900;-50
2022/07/18 12:00:38;;;;;;;5.97;2.92;;;30.20;99.90;;;;;;5083282;28;20119;-51
2022/07/18 12:03:18;;;;;;;5.63;2.70;;;30.50;99.90;;;;;;5064596;28;20059;-51
2022/07/18 12:05:50;;;;;;;19.67;3.10;;;30.30;80.90;;;;;;5082307;28;20519;-50
2022/07/18 12:08:36;;;;;;;6.93;2.72;;;30.10;99.90;;;;;;5082229;28;20040;-50
2022/07/18 12:11:29;;;;;;;6.00;2.90;;;29.70;99.90;;;;;;5082535;28;20076;-49
2022/07/18 12:14:00;;;;;;;25.98;3.15;;;29.30;99.90;;;;;;5000558;28;20153;-49
2022/07/18 12:16:30;;;;;;;6.32;2.72;;;27.80;81.40;;;;;;5000467;28;20181;-49
2022/07/18 12:18:58;;;;;;;6.13;2.72;;;28.60;99.90;;;;;;4999541;28;20176;-49
2022/07/18 12:21:38;;;;;;;5.82;2.63;;;28.40;99.90;;;;;;4999669;28;20046;-51
2022/07/18 12:24:24;;;;;;;5.60;2.28;;;28.20;99.90;;;;;;4999870;28;20152;-48
2022/07/18 12:27:12;;;;;;;6.05;2.70;;;28.40;99.90;;;;;;4999931;28;20049;-50
2022/07/18 12:29:56;;;;;;;6.40;2.75;;;28.50;99.90;;;;;;4998788;28;20058;-47
2022/07/18 12:32:26;;;;;;;6.50;2.55;;;28.70;99.90;;;;;;4998586;28;20058;-51
2022/07/18 12:35:00;;;;;;;7.10;2.22;;;28.40;99.90;;;;;;4998803;28;20107;-49
2022/07/18 12:37:31;;;;;;;4.35;2.20;;;28.70;99.90;;;;;;4998216;28;20127;-46
2022/07/18 12:39:58;;;;;;;;;;;28.60;99.90;;;;;;4999135;28;20046;-50
2022/07/18 12:42:33;;;;;;;6.53;2.55;;;28.40;99.90;;;;;;4997973;28;20024;-50
2022/07/18 12:44:59;;;;;;;8.15;2.75;;;28.20;99.90;;;;;;4997826;28;20065;-49
2022/07/18 12:47:26;;;;;;;5.80;2.78;;;28.30;99.90;;;;;;4998630;28;20068;-51
2022/07/18 12:49:52;;;;;;;5.80;2.80;;;28.20;99.90;;;;;;5010418;28;20048;-48
2022/07/18 12:52:18;;;;;;;6.13;2.63;;;28.30;99.90;;;;;;5081033;28;20063;-50
2022/07/18 12:54:46;;;;;;;9.90;3.42;;;28.40;99.90;;;;;;5080651;28;21067;-47